createdAt,value
2023-04-13T00:01:27.584Z,94.40
2023-04-13T00:04:31.275Z,94.20
2023-04-13T00:07:33.893Z,94.20
2023-04-13T00:10:36.444Z,94.10
2023-04-13T00:13:43.125Z,94.20
2023-04-13T00:16:47.101Z,94.40
2023-04-13T00:19:50.188Z,94.20
2023-04-13T00:22:52.057Z,93.90
2023-04-13T00:25:53.583Z,94.10
2023-04-13T00:28:55.126Z,94.00
2023-04-13T00:31:56.844Z,93.90
2023-04-13T00:34:58.433Z,93.70
2023-04-13T00:38:02.562Z,93.80
2023-04-13T00:41:04.346Z,93.80
2023-04-13T00:44:10.423Z,93.80
2023-04-13T00:47:12.162Z,93.90
2023-04-13T00:50:16.513Z,94.10
2023-04-13T00:53:18.545Z,94.30
2023-04-13T00:56:22.916Z,94.50
2023-04-13T00:59:27.593Z,94.60
2023-04-13T01:02:29.733Z,95.00
2023-04-13T01:05:39.774Z,95.00
2023-04-13T01:09:07.085Z,95.50
2023-04-13T01:12:18.870Z,94.60
2023-04-13T01:15:21.355Z,95.40
2023-04-13T01:18:25.678Z,95.20
2023-04-13T01:21:30.278Z,95.50
2023-04-13T01:24:56.618Z,95.50
2023-04-13T01:28:07.570Z,94.90
2023-04-13T01:31:12.636Z,94.80
2023-04-13T01:34:14.355Z,95.20
2023-04-13T01:37:17.346Z,95.10
2023-04-13T01:40:22.970Z,95.10
2023-04-13T01:43:26.625Z,94.40
2023-04-13T01:46:31.539Z,95.10
2023-04-13T01:49:33.719Z,95.10
2023-04-13T01:52:39.582Z,95.30
2023-04-13T01:55:43.796Z,94.90
2023-04-13T01:58:49.660Z,95.10
2023-04-13T02:01:51.316Z,94.90
2023-04-13T02:04:52.968Z,94.70
2023-04-13T02:07:54.909Z,94.90
2023-04-13T02:10:56.787Z,94.70
2023-04-13T02:13:58.817Z,94.70
2023-04-13T02:17:00.560Z,94.80
2023-04-13T02:20:02.379Z,94.80
2023-04-13T02:23:03.940Z,94.50
2023-04-13T02:26:10.320Z,94.80
2023-04-13T02:29:11.876Z,94.90
2023-04-13T02:32:13.561Z,94.70
2023-04-13T02:35:15.922Z,94.90
2023-04-13T02:38:17.652Z,94.90
2023-04-13T02:41:22.854Z,94.80
2023-04-13T02:44:24.509Z,95.00
2023-04-13T02:47:26.262Z,95.50
2023-04-13T02:50:27.970Z,95.10
2023-04-13T02:53:29.526Z,95.10
2023-04-13T02:56:31.122Z,95.10
2023-04-13T02:59:33.818Z,95.20
2023-04-13T03:02:36.002Z,95.20
2023-04-13T03:05:38.636Z,95.30
2023-04-13T03:08:40.347Z,95.20
2023-04-13T03:11:42.498Z,95.20
2023-04-13T03:14:44.122Z,95.20
2023-04-13T03:17:45.787Z,95.20
2023-04-13T03:20:47.476Z,95.20
2023-04-13T03:23:49.080Z,95.40
2023-04-13T03:26:50.642Z,95.10
2023-04-13T03:29:52.276Z,95.10
2023-04-13T03:32:53.918Z,94.90
2023-04-13T03:35:55.538Z,95.20
2023-04-13T03:38:57.995Z,95.00
2023-04-13T03:41:59.626Z,94.90
2023-04-13T03:45:01.217Z,94.80
2023-04-13T03:48:02.819Z,94.60
2023-04-13T03:51:04.519Z,95.10
2023-04-13T03:54:06.160Z,94.70
2023-04-13T03:57:07.761Z,95.10
2023-04-13T04:00:14.339Z,94.90
2023-04-13T04:03:17.394Z,94.70
2023-04-13T04:06:19.066Z,95.30
2023-04-13T04:09:20.659Z,94.70
2023-04-13T04:12:22.234Z,94.80
2023-04-13T04:15:23.876Z,94.90
2023-04-13T04:18:25.612Z,94.90
2023-04-13T04:21:33.866Z,95.00
2023-04-13T04:24:35.877Z,94.90
2023-04-13T04:27:40.268Z,95.40
2023-04-13T04:30:41.847Z,94.20
2023-04-13T04:33:44.172Z,95.40
2023-04-13T04:36:45.746Z,95.40
2023-04-13T04:39:47.885Z,95.40
2023-04-13T04:42:49.427Z,95.50
2023-04-13T04:45:51.964Z,95.50
2023-04-13T04:48:54.415Z,95.50
2023-04-13T04:51:57.389Z,95.40
2023-04-13T04:54:58.997Z,95.50
2023-04-13T04:58:00.551Z,95.60
2023-04-13T05:01:02.602Z,95.50
2023-04-13T05:04:04.461Z,95.50
2023-04-13T05:07:06.101Z,95.40
2023-04-13T05:10:09.159Z,95.40
2023-04-13T05:13:10.820Z,95.30
2023-04-13T05:16:12.708Z,95.40
2023-04-13T05:19:14.410Z,95.50
2023-04-13T05:22:16.060Z,96.20
2023-04-13T05:25:17.897Z,95.70
2023-04-13T05:28:21.681Z,95.50
2023-04-13T05:31:27.178Z,95.60
2023-04-13T05:34:29.428Z,94.80
2023-04-13T05:37:31.925Z,95.60
2023-04-13T05:40:35.091Z,95.70
2023-04-13T05:43:36.642Z,95.60
2023-04-13T05:46:38.329Z,95.70
2023-04-13T05:49:39.921Z,95.70
2023-04-13T05:52:41.852Z,95.60
2023-04-13T05:55:45.178Z,95.70
2023-04-13T05:58:48.762Z,95.40
2023-04-13T06:01:52.301Z,95.50
2023-04-13T06:04:54.715Z,95.30
2023-04-13T06:07:56.609Z,95.20
2023-04-13T06:10:59.378Z,95.30
2023-04-13T06:14:02.462Z,95.70
2023-04-13T06:17:04.045Z,95.20
2023-04-13T06:20:07.655Z,95.50
2023-04-13T06:23:09.403Z,95.00
2023-04-13T06:26:11.490Z,95.20
2023-04-13T06:29:13.086Z,95.30
2023-04-13T06:32:14.644Z,95.30
2023-04-13T06:35:17.373Z,95.00
2023-04-13T06:38:19.705Z,95.10
2023-04-13T06:41:21.288Z,95.20
2023-04-13T06:44:23.505Z,95.10
2023-04-13T06:47:25.116Z,95.40
2023-04-13T06:50:26.725Z,95.10
2023-04-13T06:53:28.342Z,94.90
2023-04-13T06:56:30.045Z,94.90
2023-04-13T06:59:31.663Z,94.90
2023-04-13T07:02:33.493Z,94.50
2023-04-13T07:05:35.464Z,94.70
2023-04-13T07:08:37.153Z,94.50
2023-04-13T07:11:38.752Z,94.70
2023-04-13T07:14:41.472Z,94.20
2023-04-13T07:17:43.386Z,94.00
2023-04-13T07:20:45.355Z,94.10
2023-04-13T07:23:47.024Z,94.30
2023-04-13T07:26:49.099Z,94.00
2023-04-13T07:29:54.943Z,93.60
2023-04-13T07:32:56.580Z,94.20
2023-04-13T07:35:58.346Z,93.90
2023-04-13T07:39:01.365Z,94.10
2023-04-13T07:42:03.215Z,94.60
2023-04-13T07:45:06.445Z,94.40
2023-04-13T07:48:08.106Z,94.10
2023-04-13T07:51:21.901Z,94.10
2023-04-13T07:54:23.513Z,94.60
2023-04-13T07:57:25.146Z,94.40
2023-04-13T08:00:27.101Z,94.40
2023-04-13T08:03:36.183Z,94.30
2023-04-13T08:06:38.164Z,93.80
2023-04-13T08:09:41.499Z,94.50
2023-04-13T08:12:43.195Z,94.40
2023-04-13T08:15:47.957Z,94.20
2023-04-13T08:18:49.614Z,94.80
2023-04-13T08:21:52.346Z,94.20
2023-04-13T08:24:54.541Z,94.30
2023-04-13T08:27:56.416Z,94.40
2023-04-13T08:30:58.113Z,94.50
2023-04-13T08:33:59.716Z,94.50
2023-04-13T08:37:01.264Z,95.00
2023-04-13T08:40:07.237Z,94.50
2023-04-13T08:43:08.901Z,96.50
2023-04-13T08:46:11.447Z,94.20
2023-04-13T08:49:13.373Z,94.50
2023-04-13T08:52:16.764Z,94.50
2023-04-13T08:55:18.685Z,94.30
2023-04-13T08:58:26.340Z,94.20
2023-04-13T09:01:28.876Z,94.70
2023-04-13T09:04:35.764Z,94.20
2023-04-13T09:07:38.656Z,94.10
2023-04-13T09:10:40.883Z,94.20
2023-04-13T09:13:49.421Z,94.40
2023-04-13T09:16:51.208Z,93.90
2023-04-13T09:19:53.669Z,94.10
2023-04-13T09:22:55.285Z,93.90
2023-04-13T09:26:07.924Z,94.40
2023-04-13T09:29:13.213Z,94.00
2023-04-13T09:32:21.717Z,93.70
2023-04-13T09:35:29.333Z,93.50
2023-04-13T09:38:32.848Z,93.10
2023-04-13T09:41:36.430Z,93.20
2023-04-13T09:44:38.038Z,92.40
2023-04-13T09:47:40.638Z,93.40
2023-04-13T09:50:42.394Z,92.60
2023-04-13T09:53:47.201Z,92.60
2023-04-13T09:56:54.489Z,93.00
2023-04-13T09:59:58.853Z,93.30
2023-04-13T10:03:01.607Z,93.50
2023-04-13T10:06:07.774Z,93.40
2023-04-13T10:09:10.541Z,93.40
2023-04-13T10:12:13.562Z,93.60
2023-04-13T10:15:31.249Z,93.60
2023-04-13T10:18:42.276Z,92.70
2023-04-13T10:21:47.639Z,92.60
2023-04-13T10:24:50.663Z,93.20
2023-04-13T10:27:59.458Z,93.40
2023-04-13T10:31:05.472Z,93.10
2023-04-13T10:34:08.233Z,93.10
2023-04-13T10:37:21.556Z,93.10
2023-04-13T10:40:23.326Z,93.30
2023-04-13T10:43:26.267Z,93.20
2023-04-13T10:46:29.023Z,93.10
2023-04-13T10:49:31.723Z,92.80
2023-04-13T10:52:33.349Z,92.90
2023-04-13T10:55:35.287Z,92.70
2023-04-13T10:58:36.914Z,92.50
2023-04-13T11:01:41.074Z,92.20
2023-04-13T11:04:45.202Z,92.00
2023-04-13T11:07:55.472Z,91.50
2023-04-13T11:10:57.634Z,91.40
2023-04-13T11:13:59.359Z,91.00
2023-04-13T11:17:01.148Z,91.20
2023-04-13T11:20:06.874Z,91.10
2023-04-13T11:23:18.860Z,91.20
2023-04-13T11:26:34.849Z,90.80
2023-04-13T11:29:36.429Z,90.40
2023-04-13T11:32:41.440Z,91.20
2023-04-13T11:35:49.778Z,90.90
2023-04-13T11:38:53.374Z,90.80
2023-04-13T11:41:56.360Z,90.60
2023-04-13T11:44:58.035Z,90.40
2023-04-13T11:47:59.958Z,90.40
2023-04-13T11:51:01.814Z,90.10
2023-04-13T11:54:03.725Z,90.10
2023-04-13T11:57:06.121Z,89.50
2023-04-13T12:00:18.906Z,90.10
2023-04-13T12:06:25.844Z,89.70
2023-04-13T12:09:54.779Z,90.10
2023-04-13T12:13:16.045Z,89.10
2023-04-13T12:16:55.557Z,86.30
2023-04-13T12:19:54.884Z,88.70
2023-04-13T12:23:05.840Z,87.90
2023-04-13T12:26:41.740Z,88.30
2023-04-13T12:29:41.618Z,88.60
2023-04-13T12:32:45.754Z,87.60
2023-04-13T12:35:47.348Z,88.60
2023-04-13T12:38:49.001Z,87.90
2023-04-13T12:41:51.141Z,87.20
2023-04-13T12:44:52.671Z,87.80
2023-04-13T12:47:54.290Z,87.10
2023-04-13T12:50:55.914Z,88.00
2023-04-13T12:53:57.454Z,87.40
2023-04-13T12:56:59.663Z,86.50
2023-04-13T13:00:01.264Z,86.60
2023-04-13T13:03:13.638Z,86.60
2023-04-13T13:06:16.594Z,87.80
2023-04-13T13:09:18.376Z,87.10
2023-04-13T13:12:20.052Z,85.90
2023-04-13T13:15:21.678Z,84.90
2023-04-13T13:18:23.252Z,84.90
2023-04-13T13:21:24.959Z,84.20
2023-04-13T13:24:26.609Z,85.50
2023-04-13T13:30:32.704Z,86.30
2023-04-13T13:33:34.443Z,84.80
2023-04-13T13:36:36.231Z,83.90
2023-04-13T13:39:38.351Z,84.20
2023-04-13T13:42:51.111Z,84.40
2023-04-13T13:45:53.464Z,84.50
2023-04-13T13:48:55.301Z,82.40
2023-04-13T13:51:56.933Z,82.50
2023-04-13T13:54:58.498Z,81.70
2023-04-13T13:58:00.241Z,79.60
2023-04-13T14:01:02.755Z,80.20
2023-04-13T14:04:04.827Z,80.30
2023-04-13T14:07:06.413Z,79.20
2023-04-13T14:10:10.126Z,77.90
2023-04-13T14:13:11.678Z,79.00
2023-04-13T14:16:13.313Z,80.10
2023-04-13T14:19:14.952Z,80.20
2023-04-13T14:22:16.813Z,80.30
2023-04-13T14:25:18.518Z,80.50
2023-04-13T14:28:20.130Z,80.70
2023-04-13T14:31:21.989Z,82.10
2023-04-13T14:34:23.664Z,81.60
2023-04-13T14:37:27.022Z,81.00
2023-04-13T14:40:29.175Z,80.30
2023-04-13T14:43:30.753Z,78.50
2023-04-13T14:46:32.378Z,78.80
2023-04-13T14:49:34.018Z,77.10
2023-04-13T14:52:35.870Z,77.30
2023-04-13T14:55:37.408Z,77.10
2023-04-13T14:58:39.100Z,76.30
2023-04-13T15:01:40.994Z,76.60
2023-04-13T15:04:42.733Z,75.20
2023-04-13T15:07:45.951Z,74.30
2023-04-13T15:10:47.935Z,74.30
2023-04-13T15:13:50.076Z,74.70
2023-04-13T15:16:51.867Z,75.40
2023-04-13T15:19:53.450Z,76.90
2023-04-13T15:22:55.654Z,77.90
2023-04-13T15:25:57.361Z,75.40
2023-04-13T15:28:59.287Z,74.80
2023-04-13T15:32:01.395Z,74.70
2023-04-13T15:35:03.254Z,74.60
2023-04-13T15:38:09.306Z,74.30
2023-04-13T15:41:11.302Z,75.80
2023-04-13T15:44:12.867Z,75.30
2023-04-13T15:47:14.443Z,74.90
2023-04-13T15:50:17.394Z,75.20
2023-04-13T15:53:18.975Z,76.30
2023-04-13T15:56:21.137Z,76.40
2023-04-13T15:59:23.620Z,76.80
2023-04-13T16:02:26.216Z,77.50
2023-04-13T16:05:29.438Z,76.90
2023-04-13T16:08:32.940Z,77.00
2023-04-13T16:11:38.451Z,76.60
2023-04-13T16:14:44.947Z,76.80
2023-04-13T16:17:47.769Z,76.40
2023-04-13T16:20:52.541Z,76.20
2023-04-13T16:23:54.268Z,77.50
2023-04-13T16:26:55.934Z,76.20
2023-04-13T16:29:58.611Z,75.60
2023-04-13T16:33:00.357Z,75.70
2023-04-13T16:36:01.950Z,75.70
2023-04-13T16:39:10.855Z,75.30
2023-04-13T16:42:13.878Z,75.30
2023-04-13T16:45:15.681Z,75.90
2023-04-13T16:48:17.257Z,75.80
2023-04-13T16:51:18.856Z,75.40
2023-04-13T16:54:21.079Z,74.70
2023-04-13T16:57:22.700Z,73.70
2023-04-13T17:00:24.280Z,73.50
2023-04-13T17:03:26.753Z,74.10
2023-04-13T17:06:28.405Z,73.90
2023-04-13T17:09:29.988Z,73.70
2023-04-13T17:12:31.701Z,74.00
2023-04-13T17:15:33.277Z,74.00
2023-04-13T17:18:34.994Z,74.40
2023-04-13T17:21:36.724Z,74.30
2023-04-13T17:24:38.407Z,73.50
2023-04-13T17:27:40.112Z,75.00
2023-04-13T17:30:41.658Z,75.00
2023-04-13T17:33:44.935Z,74.90
2023-04-13T17:36:46.687Z,75.90
2023-04-13T17:39:50.650Z,75.50
2023-04-13T17:42:52.297Z,75.20
2023-04-13T17:45:53.907Z,75.90
2023-04-13T17:48:58.848Z,74.90
2023-04-13T17:52:00.880Z,75.40
2023-04-13T17:55:02.490Z,73.00
2023-04-13T17:58:04.369Z,70.10
2023-04-13T18:01:10.781Z,69.30
2023-04-13T18:04:15.273Z,71.00
2023-04-13T18:07:17.016Z,72.90
2023-04-13T18:10:18.623Z,73.90
2023-04-13T18:13:20.878Z,75.10
2023-04-13T18:16:22.773Z,75.70
2023-04-13T18:19:24.718Z,76.20
2023-04-13T18:22:26.998Z,76.90
2023-04-13T18:25:28.546Z,78.10
2023-04-13T18:28:30.347Z,78.90
2023-04-13T18:31:32.175Z,84.70
2023-04-13T18:34:35.650Z,78.60
2023-04-13T18:37:37.763Z,78.60
2023-04-13T18:40:40.223Z,78.20
2023-04-13T18:43:41.836Z,78.00
2023-04-13T18:46:43.468Z,78.00
2023-04-13T18:49:45.163Z,78.70
2023-04-13T18:52:46.768Z,79.50
2023-04-13T18:55:52.325Z,79.50
2023-04-13T18:58:53.896Z,79.80
2023-04-13T19:01:55.592Z,79.40
2023-04-13T19:04:57.359Z,79.60
2023-04-13T19:08:00.145Z,79.60
2023-04-13T19:11:01.720Z,79.60
2023-04-13T19:14:03.333Z,79.90
2023-04-13T19:17:05.579Z,80.10
2023-04-13T19:20:10.191Z,79.60
2023-04-13T19:23:11.810Z,79.30
2023-04-13T19:26:13.376Z,79.80
2023-04-13T19:29:15.566Z,80.90
2023-04-13T19:32:17.222Z,79.80
2023-04-13T19:35:21.438Z,80.00
2023-04-13T19:38:23.034Z,79.80
2023-04-13T19:41:24.585Z,79.40
2023-04-13T19:44:26.961Z,79.80
2023-04-13T19:47:28.593Z,79.70
2023-04-13T19:50:30.249Z,79.50
2023-04-13T19:53:31.820Z,79.80
2023-04-13T19:56:36.450Z,80.20
2023-04-13T19:59:39.501Z,79.20
2023-04-13T20:02:41.287Z,80.60
2023-04-13T20:05:43.268Z,80.20
2023-04-13T20:08:45.424Z,81.10
2023-04-13T20:11:47.069Z,81.10
2023-04-13T20:14:49.357Z,81.40
2023-04-13T20:17:51.260Z,81.40
2023-04-13T20:20:53.012Z,82.40
2023-04-13T20:23:54.569Z,82.30
2023-04-13T20:26:56.143Z,80.80
2023-04-13T20:29:57.780Z,81.60
2023-04-13T20:32:59.459Z,81.70
2023-04-13T20:36:01.494Z,81.90
2023-04-13T20:39:03.231Z,81.80
2023-04-13T20:42:05.926Z,82.40
2023-04-13T20:45:10.308Z,82.00
2023-04-13T20:51:19.299Z,82.40
2023-04-13T20:54:21.443Z,82.10
2023-04-13T20:57:23.542Z,81.60
2023-04-13T21:00:27.264Z,81.20
2023-04-13T21:03:30.646Z,81.20
2023-04-13T21:06:34.893Z,81.80
2023-04-13T21:09:37.144Z,81.20
2023-04-13T21:12:38.734Z,81.20
2023-04-13T21:15:40.495Z,81.30
2023-04-13T21:18:42.033Z,81.60
2023-04-13T21:21:43.597Z,81.60
2023-04-13T21:24:46.571Z,86.80
2023-04-13T21:27:48.156Z,81.40
2023-04-13T21:30:49.772Z,81.60
2023-04-13T21:33:51.541Z,81.50
2023-04-13T21:36:53.074Z,81.60
2023-04-13T21:39:55.175Z,81.70
2023-04-13T21:42:56.910Z,81.70
2023-04-13T21:45:58.609Z,81.10
2023-04-13T21:49:00.383Z,82.00
2023-04-13T21:52:02.095Z,81.90
2023-04-13T21:55:03.941Z,81.40
2023-04-13T21:58:05.568Z,81.10
2023-04-13T22:01:07.519Z,81.50
2023-04-13T22:04:09.244Z,81.10
2023-04-13T22:07:10.999Z,81.40
2023-04-13T22:10:12.638Z,81.50
2023-04-13T22:13:14.225Z,81.30
2023-04-13T22:16:16.818Z,83.30
2023-04-13T22:19:18.544Z,81.70
2023-04-13T22:22:20.272Z,81.70
2023-04-13T22:25:25.119Z,82.10
2023-04-13T22:28:30.288Z,83.40
2023-04-13T22:31:31.998Z,80.60
2023-04-13T22:34:34.575Z,82.40
2023-04-13T22:37:36.665Z,82.80
2023-04-13T22:40:38.969Z,82.80
2023-04-13T22:43:40.803Z,84.20
2023-04-13T22:46:42.430Z,83.20
2023-04-13T22:49:44.107Z,83.70
2023-04-13T22:52:45.981Z,83.50
2023-04-13T22:55:47.557Z,83.90
2023-04-13T22:58:49.099Z,84.00
2023-04-13T23:01:50.869Z,84.10
2023-04-13T23:04:52.653Z,84.90
2023-04-13T23:07:54.366Z,84.60
2023-04-13T23:10:55.985Z,85.00
2023-04-13T23:13:57.585Z,85.10
2023-04-13T23:16:59.188Z,86.30
2023-04-13T23:20:00.875Z,85.40
2023-04-13T23:23:02.441Z,85.50
2023-04-13T23:26:04.084Z,85.70
2023-04-13T23:29:05.730Z,85.50
2023-04-13T23:32:07.432Z,85.30
2023-04-13T23:35:09.458Z,86.00
2023-04-13T23:38:11.097Z,85.10
2023-04-13T23:41:12.656Z,86.20
2023-04-13T23:44:14.407Z,86.20
2023-04-13T23:47:16.253Z,86.40
2023-04-13T23:50:18.083Z,86.40
2023-04-13T23:53:22.978Z,86.40
2023-04-13T23:56:24.519Z,85.30
2023-04-13T23:59:26.134Z,86.90
